sensor_id;sensor_type;location;lat;lon;timestamp;pressure;altitude;pressure_sealevel;temperature;humidity
27805;BME280;15183;51.350;11.102;2022-12-07T00:03:47;99889.03;;;4.74;73.17
27805;BME280;15183;51.350;11.102;2022-12-07T00:06:16;99917.53;;;4.77;73.32
27805;BME280;15183;51.350;11.102;2022-12-07T00:08:43;99919.63;;;4.67;73.62
27805;BME280;15183;51.350;11.102;2022-12-07T00:11:11;99921.44;;;4.67;73.46
27805;BME280;15183;51.350;11.102;2022-12-07T00:13:39;99848.28;;;4.05;74.05
27805;BME280;15183;51.350;11.102;2022-12-07T00:16:09;99902.69;;;4.33;74.18
27805;BME280;15183;51.350;11.102;2022-12-07T00:18:36;99913.34;;;4.31;74.96
27805;BME280;15183;51.350;11.102;2022-12-07T00:21:20;99946.06;;;4.51;75.28
27805;BME280;15183;51.350;11.102;2022-12-07T00:23:48;99904.41;;;4.26;75.81
27805;BME280;15183;51.350;11.102;2022-12-07T00:26:29;99885.59;;;4.37;75.66
27805;BME280;15183;51.350;11.102;2022-12-07T00:29:00;99862.34;;;4.34;76.47
27805;BME280;15183;51.350;11.102;2022-12-07T00:31:31;99848.13;;;4.43;76.00
27805;BME280;15183;51.350;11.102;2022-12-07T00:33:59;99859.63;;;4.42;75.84
27805;BME280;15183;51.350;11.102;2022-12-07T00:36:26;99843.22;;;4.55;76.52
27805;BME280;15183;51.350;11.102;2022-12-07T00:38:58;99899.34;;;4.98;75.79
27805;BME280;15183;51.350;11.102;2022-12-07T00:41:27;99844.59;;;4.73;76.14
27805;BME280;15183;51.350;11.102;2022-12-07T00:43:54;99851.66;;;4.72;75.71
27805;BME280;15183;51.350;11.102;2022-12-07T00:46:22;99906.63;;;5.17;75.92
27805;BME280;15183;51.350;11.102;2022-12-07T00:48:50;99829.34;;;4.61;76.09
27805;BME280;15183;51.350;11.102;2022-12-07T00:51:19;99812.09;;;4.52;75.76
27805;BME280;15183;51.350;11.102;2022-12-07T00:53:46;99904.88;;;5.25;76.01
27805;BME280;15183;51.350;11.102;2022-12-07T00:56:15;99903.88;;;5.26;76.07
27805;BME280;15183;51.350;11.102;2022-12-07T00:58:41;99809.66;;;4.72;75.96
27805;BME280;15183;51.350;11.102;2022-12-07T01:01:09;99859.03;;;5.05;75.58
27805;BME280;15183;51.350;11.102;2022-12-07T01:03:37;99808.44;;;4.68;75.09
27805;BME280;15183;51.350;11.102;2022-12-07T01:06:04;99860.72;;;4.91;75.37
27805;BME280;15183;51.350;11.102;2022-12-07T01:08:31;99842.63;;;4.75;74.89
27805;BME280;15183;51.350;11.102;2022-12-07T01:11:07;99887.31;;;5.03;75.14
27805;BME280;15183;51.350;11.102;2022-12-07T01:13:35;99837.72;;;4.72;75.34
27805;BME280;15183;51.350;11.102;2022-12-07T01:16:05;99818.44;;;4.58;76.12
27805;BME280;15183;51.350;11.102;2022-12-07T01:18:34;99869.09;;;5.02;76.21
27805;BME280;15183;51.350;11.102;2022-12-07T01:21:06;99871.03;;;5.15;76.39
27805;BME280;15183;51.350;11.102;2022-12-07T01:23:34;99872.28;;;5.19;76.34
27805;BME280;15183;51.350;11.102;2022-12-07T01:26:05;99822.34;;;4.90;75.96
27805;BME280;15183;51.350;11.102;2022-12-07T01:28:32;99799.97;;;4.73;75.70
27805;BME280;15183;51.350;11.102;2022-12-07T01:31:07;99841.03;;;5.02;75.26
27805;BME280;15183;51.350;11.102;2022-12-07T01:33:36;99844.22;;;4.98;75.44
27805;BME280;15183;51.350;11.102;2022-12-07T01:38:41;99841.59;;;4.98;76.38
27805;BME280;15183;51.350;11.102;2022-12-07T01:41:07;99841.84;;;5.03;76.50
27805;BME280;15183;51.350;11.102;2022-12-07T01:43:35;99813.78;;;4.82;76.77
27805;BME280;15183;51.350;11.102;2022-12-07T01:46:03;99849.25;;;5.21;76.62
27805;BME280;15183;51.350;11.102;2022-12-07T01:48:39;99845.63;;;5.22;76.17
27805;BME280;15183;51.350;11.102;2022-12-07T01:51:11;99839.59;;;5.21;76.88
27805;BME280;15183;51.350;11.102;2022-12-07T01:53:43;99832.03;;;5.12;76.73
27805;BME280;15183;51.350;11.102;2022-12-07T01:56:18;99852.63;;;5.36;76.65
27805;BME280;15183;51.350;11.102;2022-12-07T01:58:46;99831.72;;;5.21;76.24
27805;BME280;15183;51.350;11.102;2022-12-07T02:01:13;99782.47;;;5.02;76.59
27805;BME280;15183;51.350;11.102;2022-12-07T02:03:43;99793.41;;;5.05;76.53
27805;BME280;15183;51.350;11.102;2022-12-07T02:06:14;99789.53;;;5.01;76.25
27805;BME280;15183;51.350;11.102;2022-12-07T02:08:42;99841.97;;;5.45;76.31
27805;BME280;15183;51.350;11.102;2022-12-07T02:11:09;99766.69;;;5.02;76.40
27805;BME280;15183;51.350;11.102;2022-12-07T02:13:39;99841.88;;;5.60;76.39
27805;BME280;15183;51.350;11.102;2022-12-07T02:19:06;99835.84;;;5.66;76.10
27805;BME280;15183;51.350;11.102;2022-12-07T02:22:08;99824.94;;;5.69;76.63
27805;BME280;15183;51.350;11.102;2022-12-07T02:24:47;99820.75;;;5.75;76.39
27805;BME280;15183;51.350;11.102;2022-12-07T02:35:55;99801.78;;;5.86;76.79
27805;BME280;15183;51.350;11.102;2022-12-07T02:39:20;99729.63;;;5.47;76.56
27805;BME280;15183;51.350;11.102;2022-12-07T02:41:56;99770.78;;;5.75;77.26
27805;BME280;15183;51.350;11.102;2022-12-07T02:44:27;99741.63;;;5.63;76.62
27805;BME280;15183;51.350;11.102;2022-12-07T02:47:00;99716.97;;;5.64;76.52
27805;BME280;15183;51.350;11.102;2022-12-07T02:49:30;99744.13;;;5.85;76.77
27805;BME280;15183;51.350;11.102;2022-12-07T02:51:58;99687.63;;;5.54;75.88
27805;BME280;15183;51.350;11.102;2022-12-07T02:54:24;99688.81;;;5.51;75.74
27805;BME280;15183;51.350;11.102;2022-12-07T02:57:10;99789.75;;;6.05;75.38
27805;BME280;15183;51.350;11.102;2022-12-07T03:00:11;99787.06;;;5.99;75.67
27805;BME280;15183;51.350;11.102;2022-12-07T03:03:00;99786.22;;;5.91;75.92
27805;BME280;15183;51.350;11.102;2022-12-07T03:06:07;99781.53;;;5.87;76.24
27805;BME280;15183;51.350;11.102;2022-12-07T03:09:15;99782.31;;;5.74;76.01
27805;BME280;15183;51.350;11.102;2022-12-07T03:12:21;99779.47;;;5.69;75.83
27805;BME280;15183;51.350;11.102;2022-12-07T03:15:05;99774.13;;;5.55;76.10
27805;BME280;15183;51.350;11.102;2022-12-07T03:17:36;99795.84;;;5.71;76.52
27805;BME280;15183;51.350;11.102;2022-12-07T03:20:11;99771.09;;;5.52;76.33
27805;BME280;15183;51.350;11.102;2022-12-07T03:22:41;99787.75;;;5.72;76.38
27805;BME280;15183;51.350;11.102;2022-12-07T03:25:13;99745.94;;;5.42;76.93
27805;BME280;15183;51.350;11.102;2022-12-07T03:28:04;99753.50;;;5.52;76.33
27805;BME280;15183;51.350;11.102;2022-12-07T03:30:42;99773.22;;;5.76;76.62
27805;BME280;15183;51.350;11.102;2022-12-07T03:33:44;99757.16;;;5.58;76.73
27805;BME280;15183;51.350;11.102;2022-12-07T03:36:50;99715.22;;;5.36;76.27
27805;BME280;15183;51.350;11.102;2022-12-07T03:39:39;99702.53;;;5.11;76.70
27805;BME280;15183;51.350;11.102;2022-12-07T03:42:08;99761.81;;;5.62;76.62
27805;BME280;15183;51.350;11.102;2022-12-07T03:44:36;99778.06;;;5.73;76.99
27805;BME280;15183;51.350;11.102;2022-12-07T03:47:10;99773.81;;;5.72;77.03
27805;BME280;15183;51.350;11.102;2022-12-07T03:50:15;99711.16;;;5.33;76.88
27805;BME280;15183;51.350;11.102;2022-12-07T03:52:59;99658.44;;;5.00;76.52
27805;BME280;15183;51.350;11.102;2022-12-07T03:55:35;99724.53;;;5.39;76.78
27805;BME280;15183;51.350;11.102;2022-12-07T03:58:07;99735.94;;;5.59;76.99
27805;BME280;15183;51.350;11.102;2022-12-07T04:00:35;99756.25;;;5.79;77.59
27805;BME280;15183;51.350;11.102;2022-12-07T04:03:02;99695.47;;;5.47;77.60
27805;BME280;15183;51.350;11.102;2022-12-07T04:05:29;99749.78;;;5.82;77.82
27805;BME280;15183;51.350;11.102;2022-12-07T04:07:55;99708.09;;;5.72;77.73
27805;BME280;15183;51.350;11.102;2022-12-07T04:10:22;99677.50;;;5.50;76.79
27805;BME280;15183;51.350;11.102;2022-12-07T04:12:48;99733.09;;;6.03;77.00
27805;BME280;15183;51.350;11.102;2022-12-07T04:15:15;99749.31;;;6.13;77.03
27805;BME280;15183;51.350;11.102;2022-12-07T04:17:42;99734.13;;;6.08;77.15
27805;BME280;15183;51.350;11.102;2022-12-07T04:20:10;99750.34;;;6.19;76.93
27805;BME280;15183;51.350;11.102;2022-12-07T04:22:36;99639.31;;;5.55;77.23
27805;BME280;15183;51.350;11.102;2022-12-07T04:25:03;99727.81;;;6.03;77.41
27805;BME280;15183;51.350;11.102;2022-12-07T04:27:30;99747.13;;;6.30;77.33
27805;BME280;15183;51.350;11.102;2022-12-07T04:29:56;99731.13;;;6.32;77.03
27805;BME280;15183;51.350;11.102;2022-12-07T04:32:23;99741.50;;;6.54;77.22
27805;BME280;15183;51.350;11.102;2022-12-07T04:34:50;99714.13;;;6.41;77.35
27805;BME280;15183;51.350;11.102;2022-12-07T04:37:16;99743.94;;;6.62;76.65
27805;BME280;15183;51.350;11.102;2022-12-07T04:39:43;99750.41;;;6.59;76.63
27805;BME280;15183;51.350;11.102;2022-12-07T04:42:11;99752.84;;;6.61;76.26
27805;BME280;15183;51.350;11.102;2022-12-07T04:44:39;99676.69;;;6.12;76.18
27805;BME280;15183;51.350;11.102;2022-12-07T04:47:05;99660.63;;;5.93;76.40
27805;BME280;15183;51.350;11.102;2022-12-07T04:49:32;99724.88;;;6.40;76.72
27805;BME280;15183;51.350;11.102;2022-12-07T04:51:58;99693.69;;;6.16;76.76
27805;BME280;15183;51.350;11.102;2022-12-07T04:54:25;99740.69;;;6.53;76.80
27805;BME280;15183;51.350;11.102;2022-12-07T04:56:51;99751.84;;;6.62;76.99
27805;BME280;15183;51.350;11.102;2022-12-07T04:59:18;99701.59;;;6.36;76.62
27805;BME280;15183;51.350;11.102;2022-12-07T05:01:44;99729.97;;;6.55;76.74
27805;BME280;15183;51.350;11.102;2022-12-07T05:04:11;99690.84;;;6.25;76.38
27805;BME280;15183;51.350;11.102;2022-12-07T05:06:37;99658.06;;;6.07;76.76
27805;BME280;15183;51.350;11.102;2022-12-07T05:09:04;99720.44;;;6.54;76.69
27805;BME280;15183;51.350;11.102;2022-12-07T05:11:31;99752.84;;;6.68;76.53
27805;BME280;15183;51.350;11.102;2022-12-07T05:14:16;99669.56;;;6.06;76.34
27805;BME280;15183;51.350;11.102;2022-12-07T05:16:45;99737.63;;;6.56;76.72
27805;BME280;15183;51.350;11.102;2022-12-07T05:19:12;99745.97;;;6.60;76.94
27805;BME280;15183;51.350;11.102;2022-12-07T05:21:39;99762.34;;;6.62;77.05
27805;BME280;15183;51.350;11.102;2022-12-07T05:24:07;99670.00;;;6.16;77.45
27805;BME280;15183;51.350;11.102;2022-12-07T05:26:34;99711.72;;;6.40;77.58
27805;BME280;15183;51.350;11.102;2022-12-07T05:29:00;99674.06;;;6.12;76.74
27805;BME280;15183;51.350;11.102;2022-12-07T05:31:27;99743.13;;;6.75;77.29
27805;BME280;15183;51.350;11.102;2022-12-07T05:33:54;99669.00;;;6.24;77.07
27805;BME280;15183;51.350;11.102;2022-12-07T05:36:20;99722.44;;;6.58;77.28
27805;BME280;15183;51.350;11.102;2022-12-07T05:38:47;99733.81;;;6.65;77.40
27805;BME280;15183;51.350;11.102;2022-12-07T05:41:17;99742.53;;;6.73;77.24
27805;BME280;15183;51.350;11.102;2022-12-07T05:44:02;99660.09;;;6.18;77.15
27805;BME280;15183;51.350;11.102;2022-12-07T05:46:29;99713.16;;;6.56;77.20
27805;BME280;15183;51.350;11.102;2022-12-07T05:48:55;99747.19;;;6.84;77.50
27805;BME280;15183;51.350;11.102;2022-12-07T05:51:22;99741.72;;;6.86;77.33
27805;BME280;15183;51.350;11.102;2022-12-07T05:53:48;99696.56;;;6.62;77.13
27805;BME280;15183;51.350;11.102;2022-12-07T05:56:15;99662.53;;;6.47;77.18
27805;BME280;15183;51.350;11.102;2022-12-07T05:58:41;99654.44;;;6.35;76.92
27805;BME280;15183;51.350;11.102;2022-12-07T06:01:26;99737.84;;;6.88;76.89
27805;BME280;15183;51.350;11.102;2022-12-07T06:03:53;99707.50;;;6.65;77.16
27805;BME280;15183;51.350;11.102;2022-12-07T06:06:19;99661.72;;;6.40;77.09
27805;BME280;15183;51.350;11.102;2022-12-07T06:08:45;99752.66;;;6.96;76.44
27805;BME280;15183;51.350;11.102;2022-12-07T06:11:12;99757.31;;;6.94;76.63
27805;BME280;15183;51.350;11.102;2022-12-07T06:13:57;99752.84;;;6.94;76.71
27805;BME280;15183;51.350;11.102;2022-12-07T06:16:23;99735.00;;;6.76;76.90
27805;BME280;15183;51.350;11.102;2022-12-07T06:18:49;99744.13;;;6.87;76.51
27805;BME280;15183;51.350;11.102;2022-12-07T06:21:16;99730.16;;;6.80;76.59
27805;BME280;15183;51.350;11.102;2022-12-07T06:23:42;99752.25;;;6.86;76.42
27805;BME280;15183;51.350;11.102;2022-12-07T06:26:09;99742.50;;;6.79;76.26
27805;BME280;15183;51.350;11.102;2022-12-07T06:28:35;99748.59;;;6.80;76.28
27805;BME280;15183;51.350;11.102;2022-12-07T06:31:02;99680.34;;;6.38;76.31
27805;BME280;15183;51.350;11.102;2022-12-07T06:33:29;99736.84;;;6.76;76.63
27805;BME280;15183;51.350;11.102;2022-12-07T06:35:55;99741.50;;;6.74;76.37
27805;BME280;15183;51.350;11.102;2022-12-07T06:38:22;99691.88;;;6.37;76.00
27805;BME280;15183;51.350;11.102;2022-12-07T06:40:48;99729.34;;;6.66;75.69
27805;BME280;15183;51.350;11.102;2022-12-07T06:43:15;99678.75;;;6.30;76.12
27805;BME280;15183;51.350;11.102;2022-12-07T06:45:42;99738.84;;;6.60;76.17
27805;BME280;15183;51.350;11.102;2022-12-07T06:48:08;99721.44;;;6.59;76.09
27805;BME280;15183;51.350;11.102;2022-12-07T06:50:34;99739.47;;;6.69;76.06
27805;BME280;15183;51.350;11.102;2022-12-07T06:53:01;99683.38;;;6.28;75.74
27805;BME280;15183;51.350;11.102;2022-12-07T06:55:27;99715.19;;;6.54;75.83
27805;BME280;15183;51.350;11.102;2022-12-07T06:57:54;99721.88;;;6.49;75.43
27805;BME280;15183;51.350;11.102;2022-12-07T07:00:21;99709.47;;;6.43;75.43
27805;BME280;15183;51.350;11.102;2022-12-07T07:02:47;99691.47;;;6.27;75.22
27805;BME280;15183;51.350;11.102;2022-12-07T07:05:14;99673.44;;;6.17;75.50
27805;BME280;15183;51.350;11.102;2022-12-07T07:07:41;99712.53;;;6.40;75.27
27805;BME280;15183;51.350;11.102;2022-12-07T07:10:08;99749.81;;;6.64;75.43
27805;BME280;15183;51.350;11.102;2022-12-07T07:12:35;99713.34;;;6.41;76.00
27805;BME280;15183;51.350;11.102;2022-12-07T07:15:01;99747.00;;;6.65;76.19
27805;BME280;15183;51.350;11.102;2022-12-07T07:17:28;99718.81;;;6.46;76.48
27805;BME280;15183;51.350;11.102;2022-12-07T07:19:54;99739.69;;;6.68;76.53
27805;BME280;15183;51.350;11.102;2022-12-07T07:22:21;99728.13;;;6.62;76.43
27805;BME280;15183;51.350;11.102;2022-12-07T07:24:47;99675.91;;;6.25;76.92
27805;BME280;15183;51.350;11.102;2022-12-07T07:27:13;99690.09;;;6.44;76.84
27805;BME280;15183;51.350;11.102;2022-12-07T07:29:40;99706.47;;;6.60;76.71
27805;BME280;15183;51.350;11.102;2022-12-07T07:32:07;99654.84;;;6.32;76.88
27805;BME280;15183;51.350;11.102;2022-12-07T07:34:33;99713.75;;;6.71;76.46
27805;BME280;15183;51.350;11.102;2022-12-07T07:37:00;99727.31;;;6.81;76.71
27805;BME280;15183;51.350;11.102;2022-12-07T07:39:27;99748.19;;;6.97;75.78
27805;BME280;15183;51.350;11.102;2022-12-07T07:41:53;99678.75;;;6.50;76.13
27805;BME280;15183;51.350;11.102;2022-12-07T07:44:19;99653.22;;;6.31;76.04
27805;BME280;15183;51.350;11.102;2022-12-07T07:46:46;99697.75;;;6.46;75.68
27805;BME280;15183;51.350;11.102;2022-12-07T07:49:12;99712.16;;;6.57;76.36
27805;BME280;15183;51.350;11.102;2022-12-07T07:51:39;99747.78;;;6.79;76.44
27805;BME280;15183;51.350;11.102;2022-12-07T07:54:05;99754.25;;;6.90;76.74
27805;BME280;15183;51.350;11.102;2022-12-07T07:56:32;99716.78;;;6.81;76.94
27805;BME280;15183;51.350;11.102;2022-12-07T07:58:58;99747.56;;;7.08;76.95
27805;BME280;15183;51.350;11.102;2022-12-07T08:01:24;99673.84;;;6.74;77.38
27805;BME280;15183;51.350;11.102;2022-12-07T08:03:51;99756.28;;;7.22;76.97
27805;BME280;15183;51.350;11.102;2022-12-07T08:06:17;99751.16;;;7.34;76.87
27805;BME280;15183;51.350;11.102;2022-12-07T08:08:44;99754.81;;;7.46;77.03
27805;BME280;15183;51.350;11.102;2022-12-07T08:11:10;99770.38;;;7.61;76.74
27805;BME280;15183;51.350;11.102;2022-12-07T08:13:37;99758.59;;;7.64;76.88
27805;BME280;15183;51.350;11.102;2022-12-07T08:16:07;99747.28;;;7.50;76.73
27805;BME280;15183;51.350;11.102;2022-12-07T08:18:36;99739.19;;;7.45;76.54
27805;BME280;15183;51.350;11.102;2022-12-07T08:21:04;99749.72;;;7.58;76.92
27805;BME280;15183;51.350;11.102;2022-12-07T08:23:30;99736.97;;;7.48;76.61
27805;BME280;15183;51.350;11.102;2022-12-07T08:26:10;99754.34;;;7.56;76.76
27805;BME280;15183;51.350;11.102;2022-12-07T08:28:37;99734.09;;;7.50;76.85
27805;BME280;15183;51.350;11.102;2022-12-07T08:31:11;99758.41;;;7.65;77.05
27805;BME280;15183;51.350;11.102;2022-12-07T08:33:39;99742.59;;;7.65;76.92
27805;BME280;15183;51.350;11.102;2022-12-07T08:36:09;99741.31;;;7.75;77.02
27805;BME280;15183;51.350;11.102;2022-12-07T08:38:38;99729.16;;;7.67;77.43
27805;BME280;15183;51.350;11.102;2022-12-07T08:41:05;99664.44;;;7.26;76.56
27805;BME280;15183;51.350;11.102;2022-12-07T08:43:32;99672.50;;;7.44;76.83
27805;BME280;15183;51.350;11.102;2022-12-07T08:46:19;99752.59;;;7.95;76.60
27805;BME280;15183;51.350;11.102;2022-12-07T08:48:53;99738.44;;;7.83;76.80
27805;BME280;15183;51.350;11.102;2022-12-07T08:51:22;99690.28;;;7.56;76.87
27805;BME280;15183;51.350;11.102;2022-12-07T08:53:50;99767.97;;;8.05;76.60
27805;BME280;15183;51.350;11.102;2022-12-07T08:56:18;99721.03;;;7.75;76.87
27805;BME280;15183;51.350;11.102;2022-12-07T08:58:45;99730.34;;;7.85;76.76
27805;BME280;15183;51.350;11.102;2022-12-07T09:01:11;99756.56;;;8.11;76.89
27805;BME280;15183;51.350;11.102;2022-12-07T09:03:38;99724.59;;;7.94;76.88
27805;BME280;15183;51.350;11.102;2022-12-07T09:06:05;99761.38;;;8.28;76.44
27805;BME280;15183;51.350;11.102;2022-12-07T09:08:37;99772.84;;;8.40;76.97
27805;BME280;15183;51.350;11.102;2022-12-07T09:11:05;99679.78;;;7.88;76.78
27805;BME280;15183;51.350;11.102;2022-12-07T09:13:32;99694.59;;;7.89;76.13
27805;BME280;15183;51.350;11.102;2022-12-07T09:15:59;99679.13;;;7.99;76.13
27805;BME280;15183;51.350;11.102;2022-12-07T09:18:25;99775.78;;;8.64;76.18
27805;BME280;15183;51.350;11.102;2022-12-07T09:20:52;99712.84;;;8.29;76.25
27805;BME280;15183;51.350;11.102;2022-12-07T09:23:19;99733.06;;;8.42;76.36
27805;BME280;15183;51.350;11.102;2022-12-07T09:25:45;99698.00;;;8.28;75.82
27805;BME280;15183;51.350;11.102;2022-12-07T09:28:12;99751.91;;;8.52;75.83
27805;BME280;15183;51.350;11.102;2022-12-07T09:30:39;99676.00;;;8.09;75.44
27805;BME280;15183;51.350;11.102;2022-12-07T09:33:05;99711.84;;;8.23;76.19
27805;BME280;15183;51.350;11.102;2022-12-07T09:35:31;99681.13;;;8.04;75.96
27805;BME280;15183;51.350;11.102;2022-12-07T09:37:58;99703.56;;;8.20;76.08
27805;BME280;15183;51.350;11.102;2022-12-07T09:40:25;99735.25;;;8.45;75.73
27805;BME280;15183;51.350;11.102;2022-12-07T09:42:54;99694.81;;;8.19;75.90
27805;BME280;15183;51.350;11.102;2022-12-07T09:45:30;99689.53;;;8.19;76.24
27805;BME280;15183;51.350;11.102;2022-12-07T09:48:03;99716.47;;;8.35;75.94
27805;BME280;15183;51.350;11.102;2022-12-07T09:50:30;99708.28;;;8.43;75.65
27805;BME280;15183;51.350;11.102;2022-12-07T09:53:13;99757.66;;;8.68;75.49
27805;BME280;15183;51.350;11.102;2022-12-07T09:55:41;99749.97;;;8.66;75.61
27805;BME280;15183;51.350;11.102;2022-12-07T09:58:26;99692.34;;;8.24;76.01
27805;BME280;15183;51.350;11.102;2022-12-07T10:00:58;99651.50;;;8.02;75.92
27805;BME280;15183;51.350;11.102;2022-12-07T10:03:27;99693.72;;;8.34;75.94
27805;BME280;15183;51.350;11.102;2022-12-07T10:05:55;99652.28;;;8.09;76.23
27805;BME280;15183;51.350;11.102;2022-12-07T10:08:21;99694.25;;;8.43;75.75
27805;BME280;15183;51.350;11.102;2022-12-07T10:10:52;99687.59;;;8.40;75.48
27805;BME280;15183;51.350;11.102;2022-12-07T10:13:22;99683.47;;;8.44;75.57
27805;BME280;15183;51.350;11.102;2022-12-07T10:15:57;99746.25;;;9.00;75.73
27805;BME280;15183;51.350;11.102;2022-12-07T10:18:32;99745.97;;;9.08;75.72
27805;BME280;15183;51.350;11.102;2022-12-07T10:21:25;99714.16;;;8.96;76.24
27805;BME280;15183;51.350;11.102;2022-12-07T10:24:05;99737.25;;;9.26;76.10
27805;BME280;15183;51.350;11.102;2022-12-07T10:26:51;99666.28;;;8.86;75.83
27805;BME280;15183;51.350;11.102;2022-12-07T10:29:34;99749.69;;;9.44;75.98
27805;BME280;15183;51.350;11.102;2022-12-07T10:34:42;99727.13;;;9.41;75.79
27805;BME280;15183;51.350;11.102;2022-12-07T10:37:19;99702.25;;;9.31;75.87
27805;BME280;15183;51.350;11.102;2022-12-07T10:39:53;99723.81;;;9.46;75.66
27805;BME280;15183;51.350;11.102;2022-12-07T10:42:31;99651.03;;;9.06;75.95
27805;BME280;15183;51.350;11.102;2022-12-07T10:45:16;99735.00;;;9.67;75.36
27805;BME280;15183;51.350;11.102;2022-12-07T10:48:12;99712.47;;;9.76;75.64
27805;BME280;15183;51.350;11.102;2022-12-07T10:51:32;99654.78;;;9.36;75.77
27805;BME280;15183;51.350;11.102;2022-12-07T10:54:50;99725.78;;;9.88;75.29
27805;BME280;15183;51.350;11.102;2022-12-07T10:57:43;99730.03;;;9.89;75.46
27805;BME280;15183;51.350;11.102;2022-12-07T11:00:49;99649.19;;;9.25;74.65
27805;BME280;15183;51.350;11.102;2022-12-07T11:06:39;99670.66;;;9.36;75.14
27805;BME280;15183;51.350;11.102;2022-12-07T11:09:35;99725.03;;;9.81;75.03
27805;BME280;15183;51.350;11.102;2022-12-07T11:15:40;99686.50;;;9.54;75.39
27805;BME280;15183;51.350;11.102;2022-12-07T11:24:10;99724.25;;;9.62;74.88
27805;BME280;15183;51.350;11.102;2022-12-07T11:30:00;99729.75;;;9.60;74.90
27805;BME280;15183;51.350;11.102;2022-12-07T11:32:47;99678.22;;;9.14;74.89
27805;BME280;15183;51.350;11.102;2022-12-07T11:38:17;99700.31;;;9.38;75.33
27805;BME280;15183;51.350;11.102;2022-12-07T11:40:49;99647.56;;;9.24;75.34
27805;BME280;15183;51.350;11.102;2022-12-07T11:43:28;99691.19;;;9.52;74.77
27805;BME280;15183;51.350;11.102;2022-12-07T11:46:09;99690.69;;;9.44;74.62
27805;BME280;15183;51.350;11.102;2022-12-07T11:48:47;99731.59;;;9.41;74.09
27805;BME280;15183;51.350;11.102;2022-12-07T11:51:18;99656.91;;;8.90;74.40
27805;BME280;15183;51.350;11.102;2022-12-07T11:54:19;99714.78;;;9.17;74.72
27805;BME280;15183;51.350;11.102;2022-12-07T11:56:44;99721.09;;;9.16;75.45
27805;BME280;15183;51.350;11.102;2022-12-07T11:59:26;99707.56;;;9.05;75.35
27805;BME280;15183;51.350;11.102;2022-12-07T12:02:03;99662.31;;;8.76;75.62
27805;BME280;15183;51.350;11.102;2022-12-07T12:04:55;99722.84;;;9.22;75.66
27805;BME280;15183;51.350;11.102;2022-12-07T12:07:27;99715.13;;;9.20;75.42
27805;BME280;15183;51.350;11.102;2022-12-07T12:10:18;99724.69;;;9.21;75.11
27805;BME280;15183;51.350;11.102;2022-12-07T12:19:06;99691.03;;;8.66;74.54
27805;BME280;15183;51.350;11.102;2022-12-07T12:21:38;99646.88;;;8.22;74.50
27805;BME280;15183;51.350;11.102;2022-12-07T12:24:14;99697.66;;;8.50;74.63
27805;BME280;15183;51.350;11.102;2022-12-07T12:26:55;99633.63;;;8.04;75.45
27805;BME280;15183;51.350;11.102;2022-12-07T12:29:37;99688.75;;;8.44;76.00
27805;BME280;15183;51.350;11.102;2022-12-07T12:32:17;99704.09;;;8.61;76.22
27805;BME280;15183;51.350;11.102;2022-12-07T12:42:57;99669.56;;;8.62;76.43
27805;BME280;15183;51.350;11.102;2022-12-07T12:45:32;99677.88;;;8.85;76.46
27805;BME280;15183;51.350;11.102;2022-12-07T12:48:03;99694.53;;;9.10;76.32
27805;BME280;15183;51.350;11.102;2022-12-07T12:50:34;99674.53;;;9.15;76.18
27805;BME280;15183;51.350;11.102;2022-12-07T12:53:25;99658.97;;;9.06;75.99
27805;BME280;15183;51.350;11.102;2022-12-07T12:56:35;99654.06;;;9.10;75.77
27805;BME280;15183;51.350;11.102;2022-12-07T12:59:31;99667.88;;;9.31;75.61
27805;BME280;15183;51.350;11.102;2022-12-07T13:04:59;99665.25;;;9.43;75.65
27805;BME280;15183;51.350;11.102;2022-12-07T13:07:59;99661.91;;;9.54;75.95
27805;BME280;15183;51.350;11.102;2022-12-07T13:15:52;99660.09;;;9.66;74.78
27805;BME280;15183;51.350;11.102;2022-12-07T13:23:37;99668.47;;;9.63;74.41
27805;BME280;15183;51.350;11.102;2022-12-07T13:31:46;99674.03;;;9.43;74.14
27805;BME280;15183;51.350;11.102;2022-12-07T13:34:39;99663.16;;;9.33;75.05
27805;BME280;15183;51.350;11.102;2022-12-07T13:37:28;99673.28;;;9.36;74.83
27805;BME280;15183;51.350;11.102;2022-12-07T13:40:18;99641.94;;;9.21;74.82
27805;BME280;15183;51.350;11.102;2022-12-07T13:42:45;99570.16;;;8.68;74.27
27805;BME280;15183;51.350;11.102;2022-12-07T13:45:28;99658.09;;;9.31;75.04
27805;BME280;15183;51.350;11.102;2022-12-07T13:48:43;99668.94;;;9.41;74.92
27805;BME280;15183;51.350;11.102;2022-12-07T13:51:25;99601.13;;;8.98;74.93
27805;BME280;15183;51.350;11.102;2022-12-07T13:53:59;99576.25;;;8.87;74.74
27805;BME280;15183;51.350;11.102;2022-12-07T13:56:33;99644.28;;;9.29;74.93
27805;BME280;15183;51.350;11.102;2022-12-07T13:59:01;99634.00;;;9.21;74.87
27805;BME280;15183;51.350;11.102;2022-12-07T14:01:30;99665.94;;;9.38;74.52
27805;BME280;15183;51.350;11.102;2022-12-07T14:04:33;99669.03;;;9.35;74.28
27805;BME280;15183;51.350;11.102;2022-12-07T14:07:22;99624.31;;;8.96;74.19
27805;BME280;15183;51.350;11.102;2022-12-07T14:10:02;99658.84;;;9.20;74.45
27805;BME280;15183;51.350;11.102;2022-12-07T14:12:31;99594.69;;;8.75;74.23
27805;BME280;15183;51.350;11.102;2022-12-07T14:14:59;99607.44;;;8.78;73.98
27805;BME280;15183;51.350;11.102;2022-12-07T14:17:28;99614.09;;;8.81;74.08
27805;BME280;15183;51.350;11.102;2022-12-07T14:19:58;99666.03;;;9.12;74.14
27805;BME280;15183;51.350;11.102;2022-12-07T14:25:22;99641.88;;;8.90;73.67
27805;BME280;15183;51.350;11.102;2022-12-07T14:27:58;99606.53;;;8.66;74.03
27805;BME280;15183;51.350;11.102;2022-12-07T14:30:29;99648.00;;;8.84;74.43
27805;BME280;15183;51.350;11.102;2022-12-07T14:33:01;99566.41;;;8.32;74.17
27805;BME280;15183;51.350;11.102;2022-12-07T14:35:29;99659.34;;;8.91;73.84
27805;BME280;15183;51.350;11.102;2022-12-07T14:37:56;99621.19;;;8.62;74.42
27805;BME280;15183;51.350;11.102;2022-12-07T14:40:26;99609.69;;;8.56;73.79
27805;BME280;15183;51.350;11.102;2022-12-07T14:43:03;99654.56;;;8.81;74.01
27805;BME280;15183;51.350;11.102;2022-12-07T14:45:31;99649.91;;;8.77;73.86